Terminal Aerodrome Forecast
Issued by NWS

Home | Current Version | Previous Version | Text Only | Print | Product List | Glossary Off
Versions: 1 2 3 4 5 6 7 8 9 10 11 12 13

738
FTUS43 KMPX 151134
TAFRWF
TAF
KRWF 151134Z 1512/1612 32018G27KT 4SM BLSN OVC015
     FM152000 32017G25KT 3SM -SN BLSN OVC015
     FM160600 36012G18KT P6SM OVC025=

USA.gov is the U.S. government's official web portal to all federal, state and local government web resources and services.